sensor_id;sensor_type;location;lat;lon;timestamp;pressure;altitude;pressure_sealevel;temperature;humidity
45864;BME280;31579;52.354;16.974;2022-12-29T00:00:31;418.3;;;-146.1;100.0
45864;BME280;31579;52.354;16.974;2022-12-29T00:01:36;418.3;;;-146.1;100.0
45864;BME280;31579;52.354;16.974;2022-12-29T00:02:40;418.5;;;-146.1;100.0
45864;BME280;31579;52.354;16.974;2022-12-29T00:04:49;419.0;;;-146.1;100.0
45864;BME280;31579;52.354;16.974;2022-12-29T00:06:55;418.6;;;-146.1;100.0
45864;BME280;31579;52.354;16.974;2022-12-29T00:07:59;417.5;;;-146.1;100.0
45864;BME280;31579;52.354;16.974;2022-12-29T00:09:03;417.9;;;-146.1;100.0
45864;BME280;31579;52.354;16.974;2022-12-29T00:10:08;418.1;;;-146.1;100.0
45864;BME280;31579;52.354;16.974;2022-12-29T00:11:13;418.2;;;-146.1;100.0
45864;BME280;31579;52.354;16.974;2022-12-29T00:12:16;419.1;;;-146.1;100.0
45864;BME280;31579;52.354;16.974;2022-12-29T00:13:21;418.7;;;-146.1;100.0
45864;BME280;31579;52.354;16.974;2022-12-29T00:14:25;418.1;;;-146.1;100.0
45864;BME280;31579;52.354;16.974;2022-12-29T00:15:28;417.9;;;-146.1;100.0
45864;BME280;31579;52.354;16.974;2022-12-29T00:16:33;416.9;;;-146.1;100.0
45864;BME280;31579;52.354;16.974;2022-12-29T00:17:36;416.8;;;-146.1;100.0
45864;BME280;31579;52.354;16.974;2022-12-29T00:18:40;417.2;;;-146.1;100.0
45864;BME280;31579;52.354;16.974;2022-12-29T00:19:45;416.7;;;-146.1;100.0
45864;BME280;31579;52.354;16.974;2022-12-29T00:20:48;416.9;;;-146.1;100.0
45864;BME280;31579;52.354;16.974;2022-12-29T00:21:53;416.6;;;-146.1;100.0
45864;BME280;31579;52.354;16.974;2022-12-29T00:22:56;416.6;;;-146.1;100.0
45864;BME280;31579;52.354;16.974;2022-12-29T00:24:01;416.2;;;-146.1;100.0
45864;BME280;31579;52.354;16.974;2022-12-29T00:25:04;433.4;;;-146.1;100.0
45864;BME280;31579;52.354;16.974;2022-12-29T00:27:12;423.4;;;-146.1;100.0
45864;BME280;31579;52.354;16.974;2022-12-29T00:28:15;421.2;;;-146.1;100.0
45864;BME280;31579;52.354;16.974;2022-12-29T00:29:20;419.4;;;-146.1;100.0
45864;BME280;31579;52.354;16.974;2022-12-29T00:30:24;418.2;;;-146.1;100.0
45864;BME280;31579;52.354;16.974;2022-12-29T00:31:27;417.6;;;-146.1;100.0
45864;BME280;31579;52.354;16.974;2022-12-29T00:32:31;416.7;;;-146.1;100.0
45864;BME280;31579;52.354;16.974;2022-12-29T00:33:35;415.6;;;-146.1;100.0
45864;BME280;31579;52.354;16.974;2022-12-29T00:34:39;415.0;;;-146.1;100.0
45864;BME280;31579;52.354;16.974;2022-12-29T00:36:47;413.0;;;-146.1;100.0
45864;BME280;31579;52.354;16.974;2022-12-29T00:37:52;412.2;;;-146.1;100.0
45864;BME280;31579;52.354;16.974;2022-12-29T00:38:57;412.2;;;-146.1;100.0
45864;BME280;31579;52.354;16.974;2022-12-29T00:39:59;411.3;;;-146.1;100.0
45864;BME280;31579;52.354;16.974;2022-12-29T00:41:04;411.1;;;-146.1;100.0
45864;BME280;31579;52.354;16.974;2022-12-29T00:42:09;411.3;;;-146.1;100.0
45864;BME280;31579;52.354;16.974;2022-12-29T00:43:12;410.5;;;-146.1;100.0
45864;BME280;31579;52.354;16.974;2022-12-29T00:44:17;411.0;;;-146.1;100.0
45864;BME280;31579;52.354;16.974;2022-12-29T00:45:20;428.9;;;-146.1;100.0
45864;BME280;31579;52.354;16.974;2022-12-29T00:46:24;422.5;;;-146.1;100.0
45864;BME280;31579;52.354;16.974;2022-12-29T00:47:29;419.3;;;-146.1;100.0
45864;BME280;31579;52.354;16.974;2022-12-29T00:48:32;417.7;;;-146.1;100.0
45864;BME280;31579;52.354;16.974;2022-12-29T00:49:36;416.4;;;-146.1;100.0
45864;BME280;31579;52.354;16.974;2022-12-29T00:50:41;415.0;;;-146.1;100.0
45864;BME280;31579;52.354;16.974;2022-12-29T00:51:45;413.8;;;-146.1;100.0
45864;BME280;31579;52.354;16.974;2022-12-29T00:52:48;412.5;;;-146.1;100.0
45864;BME280;31579;52.354;16.974;2022-12-29T00:53:53;411.9;;;-146.1;100.0
45864;BME280;31579;52.354;16.974;2022-12-29T00:54:57;410.9;;;-146.1;100.0
45864;BME280;31579;52.354;16.974;2022-12-29T00:56:01;410.5;;;-146.1;100.0
45864;BME280;31579;52.354;16.974;2022-12-29T00:57:04;429.1;;;-146.1;100.0
45864;BME280;31579;52.354;16.974;2022-12-29T00:58:07;421.5;;;-146.1;100.0
45864;BME280;31579;52.354;16.974;2022-12-29T00:59:11;419.2;;;-146.1;100.0
45864;BME280;31579;52.354;16.974;2022-12-29T01:00:16;416.8;;;-146.1;100.0
45864;BME280;31579;52.354;16.974;2022-12-29T01:01:23;305.4;;;-146.1;100.0
45864;BME280;31579;52.354;16.974;2022-12-29T01:02:26;325.1;;;-146.1;100.0
45864;BME280;31579;52.354;16.974;2022-12-29T01:03:31;352.4;;;-146.1;100.0
45864;BME280;31579;52.354;16.974;2022-12-29T01:04:36;371.7;;;-146.1;100.0
45864;BME280;31579;52.354;16.974;2022-12-29T01:05:39;381.3;;;-146.1;100.0
45864;BME280;31579;52.354;16.974;2022-12-29T01:06:44;387.7;;;-146.1;100.0
45864;BME280;31579;52.354;16.974;2022-12-29T01:07:49;393.8;;;-146.1;100.0
45864;BME280;31579;52.354;16.974;2022-12-29T01:09:07;345.8;;;-146.1;100.0
45864;BME280;31579;52.354;16.974;2022-12-29T01:10:11;305.0;;;-146.1;100.0
45864;BME280;31579;52.354;16.974;2022-12-29T01:11:15;336.7;;;-146.1;100.0
45864;BME280;31579;52.354;16.974;2022-12-29T01:12:20;361.7;;;-146.1;100.0
45864;BME280;31579;52.354;16.974;2022-12-29T01:13:24;376.5;;;-146.1;100.0
45864;BME280;31579;52.354;16.974;2022-12-29T01:14:28;384.9;;;-146.1;100.0
45864;BME280;31579;52.354;16.974;2022-12-29T01:15:32;390.9;;;-146.1;100.0
45864;BME280;31579;52.354;16.974;2022-12-29T01:16:36;395.1;;;-146.1;100.0
45864;BME280;31579;52.354;16.974;2022-12-29T01:17:40;397.9;;;-146.1;100.0
45864;BME280;31579;52.354;16.974;2022-12-29T01:18:44;400.2;;;-146.1;100.0
45864;BME280;31579;52.354;16.974;2022-12-29T01:19:48;402.3;;;-146.1;100.0
45864;BME280;31579;52.354;16.974;2022-12-29T01:21:56;404.6;;;-146.1;100.0
45864;BME280;31579;52.354;16.974;2022-12-29T01:23:00;405.1;;;-146.1;100.0
45864;BME280;31579;52.354;16.974;2022-12-29T01:24:03;434.9;;;-146.1;100.0
45864;BME280;31579;52.354;16.974;2022-12-29T01:25:07;426.7;;;-146.1;100.0
45864;BME280;31579;52.354;16.974;2022-12-29T01:26:11;423.9;;;-146.1;100.0
45864;BME280;31579;52.354;16.974;2022-12-29T01:27:15;421.8;;;-146.1;100.0
45864;BME280;31579;52.354;16.974;2022-12-29T01:28:19;420.0;;;-146.1;100.0
45864;BME280;31579;52.354;16.974;2022-12-29T01:29:23;418.9;;;-146.1;100.0
45864;BME280;31579;52.354;16.974;2022-12-29T01:30:27;417.1;;;-146.1;100.0
45864;BME280;31579;52.354;16.974;2022-12-29T01:31:31;416.2;;;-146.1;100.0
45864;BME280;31579;52.354;16.974;2022-12-29T01:32:35;415.1;;;-146.1;100.0
45864;BME280;31579;52.354;16.974;2022-12-29T01:33:39;414.9;;;-146.1;100.0
45864;BME280;31579;52.354;16.974;2022-12-29T01:34:43;414.3;;;-146.1;100.0
45864;BME280;31579;52.354;16.974;2022-12-29T01:35:47;414.0;;;-146.1;100.0
45864;BME280;31579;52.354;16.974;2022-12-29T01:36:51;413.0;;;-146.1;100.0
45864;BME280;31579;52.354;16.974;2022-12-29T01:37:55;413.1;;;-146.1;100.0
45864;BME280;31579;52.354;16.974;2022-12-29T01:38:59;412.5;;;-146.1;100.0
45864;BME280;31579;52.354;16.974;2022-12-29T01:40:01;436.0;;;-146.1;100.0
45864;BME280;31579;52.354;16.974;2022-12-29T01:41:04;436.9;;;-146.1;100.0
45864;BME280;31579;52.354;16.974;2022-12-29T01:42:26;405.3;;;-146.1;100.0
45864;BME280;31579;52.354;16.974;2022-12-29T01:44:54;391.2;;;-146.1;100.0
45864;BME280;31579;52.354;16.974;2022-12-29T01:45:56;395.9;;;-146.1;100.0
45864;BME280;31579;52.354;16.974;2022-12-29T01:47:07;345.2;;;-146.1;100.0
45864;BME280;31579;52.354;16.974;2022-12-29T01:48:11;315.9;;;-146.1;100.0
45864;BME280;31579;52.354;16.974;2022-12-29T01:49:18;352.6;;;-146.1;100.0
45864;BME280;31579;52.354;16.974;2022-12-29T01:51:25;380.9;;;-146.1;100.0
45864;BME280;31579;52.354;16.974;2022-12-29T01:52:30;386.5;;;-146.1;100.0
45864;BME280;31579;52.354;16.974;2022-12-29T01:53:32;391.0;;;-146.1;100.0
45864;BME280;31579;52.354;16.974;2022-12-29T01:54:41;393.0;;;-146.1;100.0
45864;BME280;31579;52.354;16.974;2022-12-29T01:55:42;394.8;;;-146.1;100.0
45864;BME280;31579;52.354;16.974;2022-12-29T01:56:44;396.2;;;-146.1;100.0
45864;BME280;31579;52.354;16.974;2022-12-29T01:57:49;398.2;;;-146.1;100.0
45864;BME280;31579;52.354;16.974;2022-12-29T01:58:58;399.3;;;-146.1;100.0
45864;BME280;31579;52.354;16.974;2022-12-29T02:00:07;400.0;;;-146.1;100.0
45864;BME280;31579;52.354;16.974;2022-12-29T02:01:01;400.1;;;-146.1;100.0
45864;BME280;31579;52.354;16.974;2022-12-29T02:02:05;401.8;;;-146.1;100.0
45864;BME280;31579;52.354;16.974;2022-12-29T02:03:09;402.1;;;-146.1;100.0
45864;BME280;31579;52.354;16.974;2022-12-29T02:04:13;402.6;;;-146.1;100.0
45864;BME280;31579;52.354;16.974;2022-12-29T02:07:26;402.7;;;-146.1;100.0
45864;BME280;31579;52.354;16.974;2022-12-29T02:08:29;402.8;;;-146.1;100.0
45864;BME280;31579;52.354;16.974;2022-12-29T02:09:34;404.1;;;-146.1;100.0
45864;BME280;31579;52.354;16.974;2022-12-29T02:10:38;403.2;;;-146.1;100.0
45864;BME280;31579;52.354;16.974;2022-12-29T02:11:41;402.6;;;-146.1;100.0
45864;BME280;31579;52.354;16.974;2022-12-29T02:12:45;402.6;;;-146.1;100.0
45864;BME280;31579;52.354;16.974;2022-12-29T02:13:49;403.1;;;-146.1;100.0
45864;BME280;31579;52.354;16.974;2022-12-29T02:14:56;402.8;;;-146.1;100.0
45864;BME280;31579;52.354;16.974;2022-12-29T02:41:50;395.3;;;-146.1;100.0
45864;BME280;31579;52.354;16.974;2022-12-29T02:42:52;396.8;;;-146.1;100.0
45864;BME280;31579;52.354;16.974;2022-12-29T02:46:04;430.0;;;-146.1;100.0
45864;BME280;31579;52.354;16.974;2022-12-29T02:47:11;427.8;;;-146.1;100.0
45864;BME280;31579;52.354;16.974;2022-12-29T02:48:12;423.0;;;-146.1;100.0
45864;BME280;31579;52.354;16.974;2022-12-29T02:50:27;419.1;;;-146.1;100.0
45864;BME280;31579;52.354;16.974;2022-12-29T02:51:26;417.3;;;-146.1;100.0
45864;BME280;31579;52.354;16.974;2022-12-29T02:52:27;415.5;;;-146.1;100.0
45864;BME280;31579;52.354;16.974;2022-12-29T02:53:30;415.0;;;-146.1;100.0
45864;BME280;31579;52.354;16.974;2022-12-29T02:54:33;413.9;;;-146.1;100.0
45864;BME280;31579;52.354;16.974;2022-12-29T02:55:37;412.7;;;-146.1;100.0
45864;BME280;31579;52.354;16.974;2022-12-29T02:56:41;412.1;;;-146.1;100.0
45864;BME280;31579;52.354;16.974;2022-12-29T02:57:45;412.2;;;-146.1;100.0
45864;BME280;31579;52.354;16.974;2022-12-29T02:58:49;411.6;;;-146.1;100.0
45864;BME280;31579;52.354;16.974;2022-12-29T03:00:01;411.5;;;-146.1;100.0
45864;BME280;31579;52.354;16.974;2022-12-29T03:03:35;412.3;;;-146.1;100.0
45864;BME280;31579;52.354;16.974;2022-12-29T03:11:41;414.8;;;-146.1;100.0
45864;BME280;31579;52.354;16.974;2022-12-29T03:13:47;414.8;;;-146.1;100.0
45864;BME280;31579;52.354;16.974;2022-12-29T03:15:55;415.6;;;-146.1;100.0
45864;BME280;31579;52.354;16.974;2022-12-29T03:17:01;415.7;;;-146.1;100.0
45864;BME280;31579;52.354;16.974;2022-12-29T03:18:02;442.7;;;-146.1;100.0
45864;BME280;31579;52.354;16.974;2022-12-29T03:20:08;438.6;;;-146.1;100.0
45864;BME280;31579;52.354;16.974;2022-12-29T03:22:19;434.7;;;-146.1;100.0
45864;BME280;31579;52.354;16.974;2022-12-29T03:23:20;432.3;;;-146.1;100.0
45864;BME280;31579;52.354;16.974;2022-12-29T03:24:27;430.8;;;-146.1;100.0
45864;BME280;31579;52.354;16.974;2022-12-29T03:25:30;429.8;;;-146.1;100.0
45864;BME280;31579;52.354;16.974;2022-12-29T03:26:33;428.9;;;-146.1;100.0
45864;BME280;31579;52.354;16.974;2022-12-29T03:27:42;428.0;;;-146.1;100.0
45864;BME280;31579;52.354;16.974;2022-12-29T03:28:44;427.8;;;-146.1;100.0
45864;BME280;31579;52.354;16.974;2022-12-29T03:29:50;428.1;;;-146.1;100.0
45864;BME280;31579;52.354;16.974;2022-12-29T03:30:51;428.3;;;-146.1;100.0
45864;BME280;31579;52.354;16.974;2022-12-29T03:31:55;427.9;;;-146.1;100.0
45864;BME280;31579;52.354;16.974;2022-12-29T03:33:01;427.6;;;-146.1;100.0
45864;BME280;31579;52.354;16.974;2022-12-29T03:34:03;427.7;;;-146.1;100.0
45864;BME280;31579;52.354;16.974;2022-12-29T03:35:07;427.4;;;-146.1;100.0
45864;BME280;31579;52.354;16.974;2022-12-29T03:36:13;427.2;;;-146.1;100.0
45864;BME280;31579;52.354;16.974;2022-12-29T03:37:17;426.8;;;-146.1;100.0
45864;BME280;31579;52.354;16.974;2022-12-29T03:38:23;427.4;;;-146.1;100.0
45864;BME280;31579;52.354;16.974;2022-12-29T03:39:24;428.5;;;-146.1;100.0
45864;BME280;31579;52.354;16.974;2022-12-29T03:40:27;429.0;;;-146.1;100.0
45864;BME280;31579;52.354;16.974;2022-12-29T03:41:31;429.8;;;-146.1;100.0
45864;BME280;31579;52.354;16.974;2022-12-29T03:42:35;430.2;;;-146.1;100.0
45864;BME280;31579;52.354;16.974;2022-12-29T03:43:39;430.5;;;-146.1;100.0
45864;BME280;31579;52.354;16.974;2022-12-29T03:44:44;430.8;;;-146.1;100.0
45864;BME280;31579;52.354;16.974;2022-12-29T03:45:47;431.3;;;-146.1;100.0
45864;BME280;31579;52.354;16.974;2022-12-29T03:46:51;431.9;;;-146.1;100.0
45864;BME280;31579;52.354;16.974;2022-12-29T03:47:55;432.3;;;-146.1;100.0
45864;BME280;31579;52.354;16.974;2022-12-29T03:48:59;432.6;;;-146.1;100.0
45864;BME280;31579;52.354;16.974;2022-12-29T03:50:03;433.7;;;-146.1;100.0
45864;BME280;31579;52.354;16.974;2022-12-29T03:51:07;433.9;;;-146.1;100.0
45864;BME280;31579;52.354;16.974;2022-12-29T03:52:11;434.1;;;-146.1;100.0
45864;BME280;31579;52.354;16.974;2022-12-29T03:53:15;434.4;;;-146.1;100.0
45864;BME280;31579;52.354;16.974;2022-12-29T03:54:19;435.2;;;-146.1;100.0
45864;BME280;31579;52.354;16.974;2022-12-29T03:55:23;434.6;;;-146.1;100.0
45864;BME280;31579;52.354;16.974;2022-12-29T03:56:27;434.1;;;-146.1;100.0
45864;BME280;31579;52.354;16.974;2022-12-29T03:57:31;434.7;;;-146.1;100.0
45864;BME280;31579;52.354;16.974;2022-12-29T03:58:35;435.4;;;-146.1;100.0
45864;BME280;31579;52.354;16.974;2022-12-29T03:59:39;435.8;;;-146.1;100.0
45864;BME280;31579;52.354;16.974;2022-12-29T04:00:43;436.0;;;-146.1;100.0
45864;BME280;31579;52.354;16.974;2022-12-29T04:01:47;436.8;;;-146.1;100.0
45864;BME280;31579;52.354;16.974;2022-12-29T04:02:51;437.7;;;-146.1;100.0
45864;BME280;31579;52.354;16.974;2022-12-29T04:03:55;437.4;;;-146.1;100.0
45864;BME280;31579;52.354;16.974;2022-12-29T04:04:59;437.2;;;-146.1;100.0
45864;BME280;31579;52.354;16.974;2022-12-29T04:06:03;436.0;;;-146.1;100.0
45864;BME280;31579;52.354;16.974;2022-12-29T04:07:07;435.8;;;-146.1;100.0
45864;BME280;31579;52.354;16.974;2022-12-29T04:08:11;436.6;;;-146.1;100.0
45864;BME280;31579;52.354;16.974;2022-12-29T04:09:15;435.9;;;-146.1;100.0
45864;BME280;31579;52.354;16.974;2022-12-29T04:10:19;435.9;;;-146.1;100.0
45864;BME280;31579;52.354;16.974;2022-12-29T04:11:39;333.3;;;-146.1;100.0
45864;BME280;31579;52.354;16.974;2022-12-29T04:12:43;352.5;;;-146.1;100.0
45864;BME280;31579;52.354;16.974;2022-12-29T04:13:48;383.6;;;-146.1;100.0
45864;BME280;31579;52.354;16.974;2022-12-29T04:14:52;400.0;;;-146.1;100.0
45864;BME280;31579;52.354;16.974;2022-12-29T04:15:56;410.4;;;-146.1;100.0
45864;BME280;31579;52.354;16.974;2022-12-29T04:17:00;415.9;;;-146.1;100.0
45864;BME280;31579;52.354;16.974;2022-12-29T04:18:05;424.0;;;-146.1;100.0
45864;BME280;31579;52.354;16.974;2022-12-29T04:19:09;426.3;;;-146.1;100.0
45864;BME280;31579;52.354;16.974;2022-12-29T04:20:13;428.0;;;-146.1;100.0
45864;BME280;31579;52.354;16.974;2022-12-29T04:21:17;429.5;;;-146.1;100.0
45864;BME280;31579;52.354;16.974;2022-12-29T04:22:21;430.5;;;-146.1;100.0
45864;BME280;31579;52.354;16.974;2022-12-29T04:23:37;390.0;;;-146.1;100.0
45864;BME280;31579;52.354;16.974;2022-12-29T04:24:41;387.8;;;-146.1;100.0
45864;BME280;31579;52.354;16.974;2022-12-29T04:25:46;403.2;;;-146.1;100.0
45864;BME280;31579;52.354;16.974;2022-12-29T04:26:50;413.9;;;-146.1;100.0
45864;BME280;31579;52.354;16.974;2022-12-29T04:27:54;418.7;;;-146.1;100.0
45864;BME280;31579;52.354;16.974;2022-12-29T04:28:58;422.7;;;-146.1;100.0
45864;BME280;31579;52.354;16.974;2022-12-29T04:30:15;404.7;;;-146.1;100.0
45864;BME280;31579;52.354;16.974;2022-12-29T04:31:19;411.6;;;-146.1;100.0
45864;BME280;31579;52.354;16.974;2022-12-29T04:32:23;418.2;;;-146.1;100.0
45864;BME280;31579;52.354;16.974;2022-12-29T04:33:28;424.3;;;-146.1;100.0
45864;BME280;31579;52.354;16.974;2022-12-29T04:34:32;426.3;;;-146.1;100.0
45864;BME280;31579;52.354;16.974;2022-12-29T04:35:36;428.5;;;-146.1;100.0
45864;BME280;31579;52.354;16.974;2022-12-29T04:36:40;430.6;;;-146.1;100.0
45864;BME280;31579;52.354;16.974;2022-12-29T04:37:44;431.6;;;-146.1;100.0
45864;BME280;31579;52.354;16.974;2022-12-29T04:38:48;432.3;;;-146.1;100.0
45864;BME280;31579;52.354;16.974;2022-12-29T04:39:52;432.8;;;-146.1;100.0
45864;BME280;31579;52.354;16.974;2022-12-29T04:40:58;433.3;;;-146.1;100.0
45864;BME280;31579;52.354;16.974;2022-12-29T04:42:00;433.2;;;-146.1;100.0
45864;BME280;31579;52.354;16.974;2022-12-29T04:43:05;434.5;;;-146.1;100.0
45864;BME280;31579;52.354;16.974;2022-12-29T04:44:10;436.9;;;-146.1;100.0
45864;BME280;31579;52.354;16.974;2022-12-29T04:45:14;437.1;;;-146.1;100.0
45864;BME280;31579;52.354;16.974;2022-12-29T04:46:18;437.3;;;-146.1;100.0
45864;BME280;31579;52.354;16.974;2022-12-29T04:47:22;437.5;;;-146.1;100.0
45864;BME280;31579;52.354;16.974;2022-12-29T04:48:26;437.4;;;-146.1;100.0
45864;BME280;31579;52.354;16.974;2022-12-29T04:49:30;437.8;;;-146.1;100.0
45864;BME280;31579;52.354;16.974;2022-12-29T04:50:34;437.7;;;-146.1;100.0
45864;BME280;31579;52.354;16.974;2022-12-29T04:51:38;438.0;;;-146.1;100.0
45864;BME280;31579;52.354;16.974;2022-12-29T04:52:42;438.1;;;-146.1;100.0
45864;BME280;31579;52.354;16.974;2022-12-29T04:53:46;438.0;;;-146.1;100.0
45864;BME280;31579;52.354;16.974;2022-12-29T04:54:50;438.4;;;-146.1;100.0
45864;BME280;31579;52.354;16.974;2022-12-29T04:55:54;438.0;;;-146.1;100.0
45864;BME280;31579;52.354;16.974;2022-12-29T04:56:58;438.0;;;-146.1;100.0
45864;BME280;31579;52.354;16.974;2022-12-29T04:58:00;462.8;;;-146.1;100.0
45864;BME280;31579;52.354;16.974;2022-12-29T04:59:03;464.4;;;-146.1;100.0
45864;BME280;31579;52.354;16.974;2022-12-29T05:00:07;458.3;;;-146.1;100.0
45864;BME280;31579;52.354;16.974;2022-12-29T05:01:09;470.1;;;-146.1;100.0
45864;BME280;31579;52.354;16.974;2022-12-29T05:02:14;463.2;;;-146.1;100.0
45864;BME280;31579;52.354;16.974;2022-12-29T05:03:18;460.1;;;-146.1;100.0
45864;BME280;31579;52.354;16.974;2022-12-29T05:04:22;456.9;;;-146.1;100.0
45864;BME280;31579;52.354;16.974;2022-12-29T05:05:26;454.4;;;-146.1;100.0
45864;BME280;31579;52.354;16.974;2022-12-29T05:06:30;452.2;;;-146.1;100.0
45864;BME280;31579;52.354;16.974;2022-12-29T05:07:34;450.1;;;-146.1;100.0
45864;BME280;31579;52.354;16.974;2022-12-29T05:08:38;448.0;;;-146.1;100.0
45864;BME280;31579;52.354;16.974;2022-12-29T05:09:42;446.2;;;-146.1;100.0
45864;BME280;31579;52.354;16.974;2022-12-29T05:10:46;444.8;;;-146.1;100.0
45864;BME280;31579;52.354;16.974;2022-12-29T05:11:50;443.7;;;-146.1;100.0
45864;BME280;31579;52.354;16.974;2022-12-29T05:12:54;442.5;;;-146.1;100.0
45864;BME280;31579;52.354;16.974;2022-12-29T05:13:58;441.4;;;-146.1;100.0
45864;BME280;31579;52.354;16.974;2022-12-29T05:15:00;461.9;;;-146.1;100.0
45864;BME280;31579;52.354;16.974;2022-12-29T05:15:24;441.6;;;-146.1;100.0
45864;BME280;31579;52.354;16.974;2022-12-29T05:16:28;439.2;;;-146.1;100.0
45864;BME280;31579;52.354;16.974;2022-12-29T05:18:36;439.0;;;-146.1;100.0
45864;BME280;31579;52.354;16.974;2022-12-29T05:19:40;438.9;;;-146.1;100.0
45864;BME280;31579;52.354;16.974;2022-12-29T05:20:45;438.8;;;-146.1;100.0
45864;BME280;31579;52.354;16.974;2022-12-29T05:21:48;438.5;;;-146.1;100.0
45864;BME280;31579;52.354;16.974;2022-12-29T05:22:52;438.7;;;-146.1;100.0
45864;BME280;31579;52.354;16.974;2022-12-29T05:23:56;438.1;;;-146.1;100.0
45864;BME280;31579;52.354;16.974;2022-12-29T05:25:00;438.0;;;-146.1;100.0
45864;BME280;31579;52.354;16.974;2022-12-29T05:26:05;438.8;;;-146.1;100.0
45864;BME280;31579;52.354;16.974;2022-12-29T05:27:09;438.4;;;-146.1;100.0
45864;BME280;31579;52.354;16.974;2022-12-29T05:28:13;438.3;;;-146.1;100.0
45864;BME280;31579;52.354;16.974;2022-12-29T05:29:17;437.9;;;-146.1;100.0
45864;BME280;31579;52.354;16.974;2022-12-29T05:30:21;438.0;;;-146.1;100.0
45864;BME280;31579;52.354;16.974;2022-12-29T05:31:26;438.2;;;-146.1;100.0
45864;BME280;31579;52.354;16.974;2022-12-29T05:32:28;451.5;;;-146.1;100.0
45864;BME280;31579;52.354;16.974;2022-12-29T05:33:32;445.9;;;-146.1;100.0
45864;BME280;31579;52.354;16.974;2022-12-29T05:34:36;444.1;;;-146.1;100.0
45864;BME280;31579;52.354;16.974;2022-12-29T05:35:53;428.4;;;-146.1;100.0
45864;BME280;31579;52.354;16.974;2022-12-29T05:36:58;426.5;;;-146.1;100.0
45864;BME280;31579;52.354;16.974;2022-12-29T05:38:15;418.7;;;-146.1;100.0
45864;BME280;31579;52.354;16.974;2022-12-29T05:39:18;443.1;;;-146.1;100.0
45864;BME280;31579;52.354;16.974;2022-12-29T05:40:22;438.0;;;-146.1;100.0
45864;BME280;31579;52.354;16.974;2022-12-29T05:41:26;437.4;;;-146.1;100.0
45864;BME280;31579;52.354;16.974;2022-12-29T05:42:30;437.3;;;-146.1;100.0
45864;BME280;31579;52.354;16.974;2022-12-29T05:43:34;436.5;;;-146.1;100.0
45864;BME280;31579;52.354;16.974;2022-12-29T05:44:38;436.5;;;-146.1;100.0
45864;BME280;31579;52.354;16.974;2022-12-29T05:45:42;436.6;;;-146.1;100.0
45864;BME280;31579;52.354;16.974;2022-12-29T05:46:46;437.0;;;-146.1;100.0
45864;BME280;31579;52.354;16.974;2022-12-29T05:47:50;437.0;;;-146.1;100.0
45864;BME280;31579;52.354;16.974;2022-12-29T05:48:54;436.8;;;-146.1;100.0
45864;BME280;31579;52.354;16.974;2022-12-29T05:49:59;437.1;;;-146.1;100.0
45864;BME280;31579;52.354;16.974;2022-12-29T05:51:01;457.6;;;-146.1;100.0
45864;BME280;31579;52.354;16.974;2022-12-29T05:53:25;440.7;;;-146.1;100.0
45864;BME280;31579;52.354;16.974;2022-12-29T05:54:29;439.4;;;-146.1;100.0
45864;BME280;31579;52.354;16.974;2022-12-29T05:55:34;438.3;;;-146.1;100.0
45864;BME280;31579;52.354;16.974;2022-12-29T05:56:37;437.0;;;-146.1;100.0
45864;BME280;31579;52.354;16.974;2022-12-29T05:57:41;435.9;;;-146.1;100.0
45864;BME280;31579;52.354;16.974;2022-12-29T05:58:44;448.3;;;-146.1;100.0
45864;BME280;31579;52.354;16.974;2022-12-29T05:59:48;442.7;;;-146.1;100.0
45864;BME280;31579;52.354;16.974;2022-12-29T06:00:53;441.5;;;-146.1;100.0
45864;BME280;31579;52.354;16.974;2022-12-29T06:01:56;440.7;;;-146.1;100.0
45864;BME280;31579;52.354;16.974;2022-12-29T06:03:01;439.9;;;-146.1;100.0
45864;BME280;31579;52.354;16.974;2022-12-29T06:04:05;439.5;;;-146.1;100.0
45864;BME280;31579;52.354;16.974;2022-12-29T06:05:10;438.9;;;-146.1;100.0
45864;BME280;31579;52.354;16.974;2022-12-29T06:06:13;438.1;;;-146.1;100.0
45864;BME280;31579;52.354;16.974;2022-12-29T06:07:17;437.9;;;-146.1;100.0
45864;BME280;31579;52.354;16.974;2022-12-29T06:08:21;437.4;;;-146.1;100.0
45864;BME280;31579;52.354;16.974;2022-12-29T06:09:25;437.2;;;-146.1;100.0
45864;BME280;31579;52.354;16.974;2022-12-29T06:10:29;437.1;;;-146.1;100.0
45864;BME280;31579;52.354;16.974;2022-12-29T06:11:33;437.5;;;-146.1;100.0
45864;BME280;31579;52.354;16.974;2022-12-29T06:12:37;437.1;;;-146.1;100.0
45864;BME280;31579;52.354;16.974;2022-12-29T06:13:41;437.0;;;-146.1;100.0
45864;BME280;31579;52.354;16.974;2022-12-29T06:14:45;437.2;;;-146.1;100.0
45864;BME280;31579;52.354;16.974;2022-12-29T06:15:51;437.6;;;-146.1;100.0
45864;BME280;31579;52.354;16.974;2022-12-29T06:16:53;437.3;;;-146.1;100.0
45864;BME280;31579;52.354;16.974;2022-12-29T06:17:58;437.1;;;-146.1;100.0
45864;BME280;31579;52.354;16.974;2022-12-29T06:19:01;437.1;;;-146.1;100.0
45864;BME280;31579;52.354;16.974;2022-12-29T06:20:06;437.3;;;-146.1;100.0
45864;BME280;31579;52.354;16.974;2022-12-29T06:21:09;437.2;;;-146.1;100.0
45864;BME280;31579;52.354;16.974;2022-12-29T06:22:13;437.1;;;-146.1;100.0
45864;BME280;31579;52.354;16.974;2022-12-29T06:23:18;437.3;;;-146.1;100.0
45864;BME280;31579;52.354;16.974;2022-12-29T06:24:21;437.3;;;-146.1;100.0
45864;BME280;31579;52.354;16.974;2022-12-29T06:25:25;436.9;;;-146.1;100.0
45864;BME280;31579;52.354;16.974;2022-12-29T06:26:29;436.9;;;-146.1;100.0
45864;BME280;31579;52.354;16.974;2022-12-29T06:27:33;437.2;;;-146.1;100.0
45864;BME280;31579;52.354;16.974;2022-12-29T06:28:37;437.5;;;-146.1;100.0
45864;BME280;31579;52.354;16.974;2022-12-29T06:29:40;448.0;;;-146.1;100.0
45864;BME280;31579;52.354;16.974;2022-12-29T06:30:45;442.9;;;-146.1;100.0
45864;BME280;31579;52.354;16.974;2022-12-29T06:31:48;441.3;;;-146.1;100.0
45864;BME280;31579;52.354;16.974;2022-12-29T06:32:52;440.3;;;-146.1;100.0
45864;BME280;31579;52.354;16.974;2022-12-29T06:33:56;439.8;;;-146.1;100.0
45864;BME280;31579;52.354;16.974;2022-12-29T06:35:01;439.5;;;-146.1;100.0
45864;BME280;31579;52.354;16.974;2022-12-29T06:36:06;439.4;;;-146.1;100.0
45864;BME280;31579;52.354;16.974;2022-12-29T06:37:10;439.0;;;-146.1;100.0
45864;BME280;31579;52.354;16.974;2022-12-29T06:38:14;438.5;;;-146.1;100.0
45864;BME280;31579;52.354;16.974;2022-12-29T06:39:18;438.3;;;-146.1;100.0